createdAt,value
2022-10-29T00:03:27.224Z,19.92
2022-10-29T00:08:30.813Z,20.05
2022-10-29T00:13:32.647Z,20.18
2022-10-29T00:18:34.548Z,20.21
2022-10-29T00:23:36.460Z,20.20
2022-10-29T00:28:38.614Z,20.14
2022-10-29T00:33:40.754Z,20.06
2022-10-29T00:38:43.484Z,20.03
2022-10-29T00:44:12.659Z,20.11
2022-10-29T00:49:16.806Z,20.03
2022-10-29T00:54:19.359Z,20.06
2022-10-29T00:59:21.325Z,20.16
2022-10-29T01:04:24.866Z,20.21
2022-10-29T01:09:26.658Z,20.23
2022-10-29T01:14:49.934Z,20.32
2022-10-29T01:20:25.646Z,20.41
2022-10-29T01:25:42.536Z,20.47
2022-10-29T01:31:00.287Z,20.50
2022-10-29T01:36:07.829Z,20.50
2022-10-29T01:41:41.616Z,20.53
2022-10-29T01:46:49.930Z,20.49
2022-10-29T01:51:54.179Z,20.37
2022-10-29T01:56:57.251Z,20.32
2022-10-29T02:02:16.142Z,20.41
2022-10-29T02:08:05.562Z,20.32
2022-10-29T02:13:11.394Z,20.40
2022-10-29T02:18:13.279Z,20.39
2022-10-29T02:23:16.691Z,20.24
2022-10-29T02:33:21.366Z,19.99
2022-10-29T02:38:23.139Z,19.92
2022-10-29T02:43:24.935Z,19.90
2022-10-29T02:48:26.721Z,20.07
2022-10-29T02:53:28.509Z,20.01
2022-10-29T02:58:30.372Z,19.97
2022-10-29T03:03:32.206Z,19.95
2022-10-29T03:08:33.980Z,19.91
2022-10-29T03:18:42.658Z,19.82
2022-10-29T03:23:44.510Z,19.79
2022-10-29T03:33:53.000Z,19.89
2022-10-29T03:38:54.816Z,19.75
2022-10-29T03:43:56.746Z,19.70
2022-10-29T03:48:58.613Z,19.66
2022-10-29T03:54:00.453Z,19.53
2022-10-29T03:59:02.352Z,19.33
2022-10-29T04:04:04.240Z,19.16
2022-10-29T04:09:06.079Z,19.03
2022-10-29T04:14:08.191Z,18.90
2022-10-29T04:19:10.051Z,18.78
2022-10-29T04:29:33.701Z,18.81
2022-10-29T04:34:35.481Z,18.74
2022-10-29T04:39:37.275Z,18.68
2022-10-29T04:44:39.123Z,18.56
2022-10-29T04:49:40.924Z,18.40
2022-10-29T04:54:42.716Z,18.34
2022-10-29T04:59:44.520Z,18.25
2022-10-29T05:04:46.310Z,18.10
2022-10-29T05:09:48.105Z,17.95
2022-10-29T05:14:49.938Z,17.86
2022-10-29T05:19:51.789Z,17.83
2022-10-29T05:24:53.573Z,17.73
2022-10-29T05:29:55.384Z,17.71
2022-10-29T05:34:57.391Z,17.78
2022-10-29T05:39:59.217Z,17.87
2022-10-29T05:45:01.004Z,17.96
2022-10-29T05:50:02.812Z,17.98
2022-10-29T05:55:05.617Z,18.02
2022-10-29T06:00:08.340Z,18.09
2022-10-29T06:05:13.869Z,18.05
2022-10-29T06:10:15.741Z,18.04
2022-10-29T06:15:18.632Z,17.91
2022-10-29T06:20:21.746Z,17.90
2022-10-29T06:25:24.223Z,17.78
2022-10-29T06:30:26.089Z,17.85
2022-10-29T06:35:28.969Z,17.88
2022-10-29T06:40:30.799Z,17.95
2022-10-29T06:45:33.575Z,18.04
2022-10-29T06:50:35.614Z,18.16
2022-10-29T06:55:37.444Z,18.27
2022-10-29T07:00:40.104Z,18.38
2022-10-29T07:05:42.051Z,18.45
2022-10-29T07:10:43.938Z,18.53
2022-10-29T07:15:45.805Z,18.58
2022-10-29T07:20:47.599Z,18.62
2022-10-29T07:25:52.487Z,18.82
2022-10-29T07:31:01.097Z,19.16
2022-10-29T07:36:03.001Z,19.45
2022-10-29T07:41:04.945Z,19.79
2022-10-29T07:46:07.299Z,20.12
2022-10-29T07:51:09.136Z,20.47
2022-10-29T07:56:11.008Z,20.72
2022-10-29T08:01:12.940Z,21.03
2022-10-29T08:06:14.784Z,21.36
2022-10-29T08:11:16.591Z,21.58
2022-10-29T08:16:18.515Z,21.83
2022-10-29T08:21:20.605Z,22.01
2022-10-29T08:31:24.154Z,22.33
2022-10-29T08:36:25.937Z,22.47
2022-10-29T08:41:38.739Z,22.58
2022-10-29T08:46:54.077Z,22.73
2022-10-29T08:52:03.227Z,22.82
2022-10-29T08:57:15.118Z,22.95
2022-10-29T09:02:18.425Z,22.88
2022-10-29T09:07:36.359Z,22.86
2022-10-29T09:13:00.331Z,22.79
2022-10-29T09:18:31.564Z,22.91
2022-10-29T09:24:05.214Z,23.05
2022-10-29T09:29:49.018Z,23.09
2022-10-29T09:34:55.296Z,23.11
2022-10-29T09:39:58.533Z,23.08
2022-10-29T09:45:04.145Z,23.14
2022-10-29T09:50:19.708Z,23.22
2022-10-29T09:55:31.611Z,23.20
2022-10-29T10:00:34.547Z,23.28
2022-10-29T10:05:55.833Z,23.48
2022-10-29T10:11:01.385Z,23.54
2022-10-29T10:16:06.197Z,23.58
2022-10-29T10:21:09.981Z,23.59
2022-10-29T10:26:42.983Z,23.48
2022-10-29T10:31:47.023Z,23.21
2022-10-29T10:37:06.105Z,23.22
2022-10-29T10:42:22.860Z,23.36
2022-10-29T10:47:32.123Z,23.43
2022-10-29T10:52:35.253Z,23.60
2022-10-29T10:57:46.208Z,23.73
2022-10-29T11:02:52.041Z,23.80
2022-10-29T11:08:10.796Z,23.80
2022-10-29T11:13:22.923Z,23.77
2022-10-29T11:18:30.968Z,23.91
2022-10-29T11:23:39.815Z,24.09
2022-10-29T11:28:53.190Z,24.12
2022-10-29T11:34:14.168Z,24.10
2022-10-29T11:39:27.166Z,24.24
2022-10-29T11:44:34.578Z,24.30
2022-10-29T11:49:51.520Z,24.37
2022-10-29T11:55:08.523Z,24.57
2022-10-29T12:00:19.199Z,24.67
2022-10-29T12:05:42.868Z,24.83
2022-10-29T12:11:03.375Z,25.01
2022-10-29T12:16:28.531Z,24.77
2022-10-29T12:22:03.791Z,25.05
2022-10-29T12:27:29.580Z,25.52
2022-10-29T12:32:50.650Z,25.57
2022-10-29T12:38:13.321Z,25.63
2022-10-29T12:43:26.120Z,25.57
2022-10-29T12:48:39.574Z,25.80
2022-10-29T12:54:18.818Z,26.10
2022-10-29T12:59:24.194Z,26.28
2022-10-29T13:04:30.932Z,26.80
2022-10-29T13:09:36.787Z,27.43
2022-10-29T13:14:40.898Z,27.90
2022-10-29T13:19:55.319Z,28.06
2022-10-29T13:25:34.827Z,28.01
2022-10-29T13:30:39.758Z,27.72
2022-10-29T13:35:42.041Z,27.54
2022-10-29T13:41:17.340Z,27.44
2022-10-29T13:46:47.200Z,27.21
2022-10-29T13:51:54.261Z,26.83
2022-10-29T13:57:04.843Z,26.56
2022-10-29T14:02:32.270Z,26.40
2022-10-29T14:07:57.121Z,26.04
2022-10-29T14:13:17.968Z,25.65
2022-10-29T14:18:27.059Z,25.32
2022-10-29T14:23:30.734Z,25.09
2022-10-29T14:28:33.769Z,24.91
2022-10-29T14:33:37.590Z,24.74
2022-10-29T14:38:52.303Z,24.60
2022-10-29T14:44:02.452Z,24.28
2022-10-29T14:49:14.249Z,24.05
2022-10-29T14:54:21.790Z,23.98
2022-10-29T14:59:29.160Z,23.84
2022-10-29T15:04:32.522Z,23.65
2022-10-29T15:09:34.372Z,23.55
2022-10-29T15:14:54.520Z,23.43
2022-10-29T15:20:02.883Z,23.34
2022-10-29T15:25:08.819Z,23.13
2022-10-29T15:30:21.678Z,22.91
2022-10-29T15:35:24.242Z,22.80
2022-10-29T15:40:26.958Z,22.78
2022-10-29T15:45:28.836Z,22.60
2022-10-29T15:50:39.802Z,22.41
2022-10-29T15:55:41.903Z,22.11
2022-10-29T16:00:44.305Z,21.99
2022-10-29T16:05:49.499Z,21.92
2022-10-29T16:10:52.397Z,21.90
2022-10-29T16:15:54.489Z,21.85
2022-10-29T16:21:01.879Z,21.78
2022-10-29T16:26:04.111Z,21.75
2022-10-29T16:31:18.595Z,21.66
2022-10-29T16:36:20.729Z,21.53
2022-10-29T16:41:22.558Z,21.43
2022-10-29T16:46:24.363Z,21.33
2022-10-29T16:51:26.234Z,21.19
2022-10-29T16:56:28.090Z,21.05
2022-10-29T17:01:30.125Z,20.96
2022-10-29T17:06:32.108Z,20.87
2022-10-29T17:11:33.971Z,20.81
2022-10-29T17:21:42.744Z,20.77
2022-10-29T17:26:44.786Z,20.81
2022-10-29T17:31:46.873Z,20.81
2022-10-29T17:36:49.727Z,20.71
2022-10-29T17:41:52.117Z,20.57
2022-10-29T17:46:54.896Z,20.47
2022-10-29T17:51:56.724Z,20.29
2022-10-29T17:56:58.898Z,20.19
2022-10-29T18:02:01.136Z,20.13
2022-10-29T18:07:03.755Z,20.07
2022-10-29T18:12:05.844Z,20.06
2022-10-29T18:17:07.990Z,20.01
2022-10-29T18:22:09.930Z,19.93
2022-10-29T18:27:11.728Z,19.92
2022-10-29T18:32:13.693Z,19.83
2022-10-29T18:37:15.792Z,19.72
2022-10-29T18:42:17.989Z,19.65
2022-10-29T18:47:20.417Z,19.57
2022-10-29T18:52:22.737Z,19.09
2022-10-29T18:57:24.813Z,19.01
2022-10-29T19:02:27.013Z,18.97
2022-10-29T19:07:29.234Z,19.29
2022-10-29T19:12:32.291Z,19.39
2022-10-29T19:17:34.813Z,19.35
2022-10-29T19:22:37.063Z,19.23
2022-10-29T19:27:39.028Z,19.13
2022-10-29T19:32:41.340Z,18.98
2022-10-29T19:37:44.047Z,18.90
2022-10-29T19:42:48.858Z,18.84
2022-10-29T19:47:51.913Z,18.83
2022-10-29T19:52:54.412Z,18.80
2022-10-29T19:57:57.148Z,18.85
2022-10-29T20:02:59.645Z,18.90
2022-10-29T20:08:02.029Z,18.95
2022-10-29T20:13:04.677Z,19.12
2022-10-29T20:18:06.484Z,19.19
2022-10-29T20:23:08.415Z,19.36
2022-10-29T20:28:11.316Z,19.48
2022-10-29T20:33:13.643Z,19.60
2022-10-29T20:38:15.432Z,19.69
2022-10-29T20:43:17.391Z,19.77
2022-10-29T20:48:19.296Z,19.68
2022-10-29T20:53:21.112Z,19.78
2022-10-29T20:58:23.053Z,19.67
2022-10-29T21:03:24.849Z,19.66
2022-10-29T21:13:36.227Z,19.44
2022-10-29T21:18:42.102Z,19.38
2022-10-29T21:23:44.304Z,19.32
2022-10-29T21:28:47.046Z,19.23
2022-10-29T21:33:53.293Z,19.14
2022-10-29T21:38:55.163Z,19.07
2022-10-29T21:43:57.032Z,19.03
2022-10-29T21:48:58.875Z,19.07
2022-10-29T21:54:00.739Z,19.08
2022-10-29T21:59:02.583Z,19.09
2022-10-29T22:04:04.521Z,19.06
2022-10-29T22:09:06.365Z,19.01
2022-10-29T22:14:08.202Z,18.91
2022-10-29T22:19:10.082Z,18.81
2022-10-29T22:24:12.037Z,18.79
2022-10-29T22:29:13.837Z,18.82
2022-10-29T22:34:15.721Z,18.83
2022-10-29T22:39:17.833Z,18.77
2022-10-29T22:44:19.991Z,18.72
2022-10-29T22:49:21.787Z,18.64
2022-10-29T22:54:23.568Z,18.56
2022-10-29T22:59:25.365Z,18.40
2022-10-29T23:04:27.254Z,18.30
2022-10-29T23:09:29.082Z,17.90
2022-10-29T23:14:30.884Z,18.20
2022-10-29T23:19:32.878Z,18.20
2022-10-29T23:24:34.661Z,18.24
2022-10-29T23:29:36.442Z,18.31
2022-10-29T23:34:38.219Z,18.35
2022-10-29T23:39:40.000Z,18.38
2022-10-29T23:44:41.821Z,18.44
2022-10-29T23:49:43.600Z,18.51
2022-10-29T23:54:45.398Z,18.46
2022-10-29T23:59:47.214Z,18.38
